Terminal Aerodrome Forecast
Issued by NWS

Home | Current Version | Previous Version | Text Only | Print | Product List | Glossary On
Versions: 1 2 3 4 5 6 7 8 9 10 11 12 13 14 15
000
FTUS45 KSLC 262324
TAFSGU
TAF
KSGU 262324Z 2700/2724 31007KT P6SM SCT160
     FM270300 07008KT P6SM SCT110 BKN160
     FM271900 24009KT P6SM SCT090 BKN140=

USA.gov is the U.S. government's official web portal to all federal, state and local government web resources and services.